Cantua Creek, CA

1:30 AM PDT on August 21, 2014 (GMT -0700)
MAP MENDOTA (P304) CA PSD | Change Station
CLOSE
Current Station
Personal Weather Station
Location: Mendota, CA
Elevation: 164 ft
Nearby Weather Stations

Elev 164 ft 36.74 °N, 120.36 °W | Updated 30 minutes ago

Clear
Clear
69 °F
Feels Like 69 °F
N
7
Wind Variable Wind from NW
Gusts 0.0 mph

Today
High -- | Low -- °F
--% Chance of Precip.
Yesterday
High -- | Low -- °F
Precip. -- in
6:23 AM 7:44 PM
Waning Crescent, 16% visible
Pressure 29.87 in
Visibility 10.0 miles
Clouds Clear
Dew Point 49 °F
Humidity 49%
Rainfall -999.00 in
Snow Depth Not available.
UV 0 out of 12
Pollen 8.60 out of 12
Air Quality Not available.
Flu Activity Not available.
METAR KNLC 210756Z AUTO 32010KT 10SM CLR 22/09 A2988 RMK AO2 SLP115 T02170089 403390161

More Conditions Fewer Conditions

Pressure 29.87 in
Visibility 10.0 miles
Clouds Clear
Dew Point 49 °F
Humidity 49%
Rainfall -999.00 in
Snow Depth Not available.
UV 0 out of 12
Pollen 8.60 out of 12
Air Quality Not available.
Flu Activity Not available.
METAR KNLC 210756Z AUTO 32010KT 10SM CLR 22/09 A2988 RMK AO2 SLP115 T02170089 403390161

More Conditions Fewer Conditions

10-Day Weather Forecast

Almanac

Astronomy

Aug. 21, 2014 Rise Set
Actual Time 6:23 AM PDT 7:44 PM PDT
Civil Twilight 5:56 AM PDT 8:11 PM PDT
Nautical Twilight 5:24 AM PDT 8:43 PM PDT
Astronomical Twilight 4:50 AM PDT 9:17 PM PDT
Moon 3:01 AM PDT 5:14 PM PDT
Length of Visible Light 14h 14m
Length of Day
13h 20m
Tomorrow will be 2m 6s shorter.
Waning Crescent, 16% of the Moon is Illuminated
Today
Waning Crescent
Aug 25
New
Sep 2
First Quarter
Sep 8
Full
Sep 15
Last Quarter

Today's Extremes

State Highs State Lows

Community

WunderPhotos

Upload Photos

1,745,867 photos uploaded!

Nearby

Snow Depth

Station Depth Elevation
Leavitt Lake 1 in 9400 ft
Leavitt Meadows 1 in 7200 ft
Summit Meadow 0 in 9122 ft
Ebbetts Pass 0 in 8700 ft
Blue Lakes 0 in 8000 ft

Earthquake Activity

City Distance Mag. Time & Date
King City, California 31 miles 2.7 10:26 PM PDT
2014-08-15
Kettleman City, California 36 miles 2.9 11:32 PM PDT
2014-08-14
King City, California 31 miles 2.9 8:01 PM PDT
2014-08-14
Mariposa, California 64 miles 2.5 4:54 AM PDT
2014-08-14
Minimum magnitude displayed is 2.5.

Coastal Water Temperatures

Place Temperature
No Stations Reporting

Nearby Weather Stations